createdAt,value
2023-04-26T00:00:50.195Z,98.5924
2023-04-26T00:01:51.434Z,98.5354
2023-04-26T00:02:51.374Z,98.5970
2023-04-26T00:03:52.626Z,98.7105
2023-04-26T00:04:53.985Z,98.7556
2023-04-26T00:05:55.039Z,98.7928
2023-04-26T00:06:55.858Z,98.8008
2023-04-26T00:07:56.513Z,98.7823
2023-04-26T00:08:57.150Z,98.7338
2023-04-26T00:09:57.924Z,98.7667
2023-04-26T00:10:58.543Z,98.7173
2023-04-26T00:11:59.199Z,98.7245
2023-04-26T00:13:00.147Z,98.7169
2023-04-26T00:14:00.738Z,98.7619
2023-04-26T00:15:01.820Z,98.7410
2023-04-26T00:16:02.595Z,98.7443
2023-04-26T00:17:03.507Z,98.7039
2023-04-26T00:18:04.317Z,98.6893
2023-04-26T00:19:05.819Z,98.5644
2023-04-26T00:20:06.433Z,98.6752
2023-04-26T00:21:07.131Z,98.6424
2023-04-26T00:22:07.647Z,98.6771
2023-04-26T00:23:08.443Z,98.7233
2023-04-26T00:24:09.294Z,98.7675
2023-04-26T00:25:09.806Z,98.7662
2023-04-26T00:26:10.676Z,98.8078
2023-04-26T00:27:11.000Z,98.7990
2023-04-26T00:28:11.454Z,98.8240
2023-04-26T00:29:12.328Z,98.7656
2023-04-26T00:31:13.032Z,98.7966
2023-04-26T00:32:13.688Z,98.7780
2023-04-26T00:33:14.839Z,98.8030
2023-04-26T00:34:15.322Z,98.7206
2023-04-26T00:35:16.100Z,98.6138
2023-04-26T00:36:16.837Z,98.5721
2023-04-26T00:37:17.271Z,98.4333
2023-04-26T00:38:18.602Z,98.4561
2023-04-26T00:39:19.505Z,98.5850
2023-04-26T00:40:19.731Z,98.6005
2023-04-26T00:41:19.800Z,98.5745
2023-04-26T00:42:21.493Z,98.6253
2023-04-26T00:43:21.871Z,98.5963
2023-04-26T00:44:24.422Z,98.6683
2023-04-26T00:46:24.728Z,98.6296
2023-04-26T00:47:25.405Z,98.6453
2023-04-26T00:48:26.205Z,98.6099
2023-04-26T00:49:26.723Z,98.6256
2023-04-26T00:50:27.526Z,98.6676
2023-04-26T00:51:28.138Z,98.6692
2023-04-26T00:52:28.870Z,98.6923
2023-04-26T00:53:29.664Z,98.7186
2023-04-26T00:54:30.211Z,98.7610
2023-04-26T00:55:32.310Z,98.6508
2023-04-26T00:57:32.175Z,98.6392
2023-04-26T00:58:32.310Z,98.5356
2023-04-26T00:59:35.110Z,98.4440
2023-04-26T01:00:35.601Z,98.3835
2023-04-26T01:01:36.130Z,98.4502
2023-04-26T01:02:36.745Z,98.4102
2023-04-26T01:03:37.505Z,98.4475
2023-04-26T01:04:38.158Z,98.4648
2023-04-26T01:05:39.867Z,98.5169
2023-04-26T01:06:39.835Z,98.5467
2023-04-26T01:07:40.433Z,98.5497
2023-04-26T01:08:41.095Z,98.5888
2023-04-26T01:09:41.929Z,98.6445
2023-04-26T01:10:42.752Z,98.6453
2023-04-26T01:11:43.608Z,98.6803
2023-04-26T01:12:44.296Z,98.6874
2023-04-26T01:13:44.879Z,98.7403
2023-04-26T01:14:45.253Z,98.8919
2023-04-26T01:15:45.991Z,98.9435
2023-04-26T01:16:47.128Z,98.9389
2023-04-26T01:17:48.321Z,98.8986
2023-04-26T01:18:49.221Z,98.7921
2023-04-26T01:19:48.687Z,98.7745
2023-04-26T01:20:48.659Z,98.8802
2023-04-26T01:21:52.254Z,98.7008
2023-04-26T01:22:52.349Z,98.6898
2023-04-26T01:23:52.599Z,98.6219
2023-04-26T01:24:52.844Z,98.7001
2023-04-26T01:25:53.557Z,98.7087
2023-04-26T01:26:53.840Z,98.7865
2023-04-26T01:27:54.335Z,98.8059
2023-04-26T01:29:54.657Z,98.8123
2023-04-26T01:30:55.473Z,98.7290
2023-04-26T01:31:56.408Z,98.7269
2023-04-26T01:32:57.206Z,98.7968
2023-04-26T01:33:57.985Z,98.7162
2023-04-26T01:34:58.654Z,98.8340
2023-04-26T01:35:59.392Z,98.8084
2023-04-26T01:37:00.302Z,98.8052
2023-04-26T01:38:00.851Z,98.8088
2023-04-26T01:39:01.528Z,98.8476
2023-04-26T01:40:02.327Z,98.8238
2023-04-26T01:41:02.912Z,98.7766
2023-04-26T01:42:03.721Z,98.8307
2023-04-26T01:43:04.330Z,98.7999
2023-04-26T01:44:05.312Z,98.8493
2023-04-26T01:45:06.117Z,98.7853
2023-04-26T01:46:06.871Z,98.7106
2023-04-26T01:47:07.080Z,98.7308
2023-04-26T01:48:08.124Z,98.7406
2023-04-26T01:49:08.392Z,98.8200
2023-04-26T01:50:08.630Z,98.7455
2023-04-26T01:51:10.344Z,98.7133
2023-04-26T01:52:09.944Z,98.8163
2023-04-26T01:53:10.649Z,98.7938
2023-04-26T01:54:11.480Z,98.8082
2023-04-26T01:55:12.271Z,98.9960
2023-04-26T01:56:12.975Z,98.9874
2023-04-26T01:57:13.692Z,99.0704
2023-04-26T01:58:14.214Z,99.0630
2023-04-26T01:59:15.381Z,99.1039
2023-04-26T02:00:15.968Z,99.2253
2023-04-26T02:01:16.619Z,99.0597
2023-04-26T02:02:17.676Z,99.0047
2023-04-26T02:03:17.917Z,98.9624
2023-04-26T02:04:18.732Z,99.0727
2023-04-26T02:05:19.534Z,99.0387
2023-04-26T02:06:20.637Z,99.1002
2023-04-26T02:07:21.423Z,99.1257
2023-04-26T02:08:22.145Z,99.0307
2023-04-26T02:09:23.218Z,99.1916
2023-04-26T02:10:24.027Z,99.2713
2023-04-26T02:11:24.494Z,99.2446
2023-04-26T02:12:25.695Z,99.2316
2023-04-26T02:13:26.807Z,99.2939
2023-04-26T02:14:26.500Z,99.3494
2023-04-26T02:15:27.201Z,99.3619
2023-04-26T02:16:28.703Z,99.3477
2023-04-26T02:17:29.634Z,99.4270
2023-04-26T02:18:30.924Z,99.4157
2023-04-26T02:19:31.379Z,99.4114
2023-04-26T02:20:32.026Z,99.3828
2023-04-26T02:21:32.343Z,99.3262
2023-04-26T02:22:33.051Z,99.3665
2023-04-26T02:23:33.740Z,99.5081
2023-04-26T02:24:34.239Z,99.4692
2023-04-26T02:25:35.418Z,99.4477
2023-04-26T02:26:35.344Z,99.5889
2023-04-26T02:27:36.670Z,99.6469
2023-04-26T02:28:37.560Z,99.6534
2023-04-26T02:30:38.498Z,99.6024
2023-04-26T02:31:39.520Z,99.6152
2023-04-26T02:32:39.648Z,99.6410
2023-04-26T02:33:40.213Z,99.6367
2023-04-26T02:34:41.082Z,99.5770
2023-04-26T02:35:41.085Z,99.6478
2023-04-26T02:36:41.629Z,99.6732
2023-04-26T02:37:42.108Z,99.6905
2023-04-26T02:38:42.568Z,99.6972
2023-04-26T02:39:43.664Z,99.7466
2023-04-26T02:40:45.020Z,99.7999
2023-04-26T02:41:49.112Z,99.8108
2023-04-26T02:43:48.401Z,99.7053
2023-04-26T02:44:49.074Z,99.7510
2023-04-26T02:45:49.788Z,99.8148
2023-04-26T02:46:50.372Z,99.8524
2023-04-26T02:47:51.675Z,99.8408
2023-04-26T02:48:51.947Z,99.8678
2023-04-26T02:49:53.609Z,99.8930
2023-04-26T02:51:55.798Z,99.9919
2023-04-26T02:53:55.708Z,100.0000
2023-04-26T02:54:57.125Z,100.0000
2023-04-26T02:56:08.052Z,100.0000
2023-04-26T02:57:09.240Z,100.0000
2023-04-26T02:58:10.464Z,100.0000
2023-04-26T02:59:11.278Z,100.0000
2023-04-26T03:01:14.476Z,100.0000
2023-04-26T03:02:15.937Z,100.0000
2023-04-26T03:04:16.127Z,100.0000
2023-04-26T03:05:15.777Z,100.0000
2023-04-26T03:06:17.069Z,100.0000
2023-04-26T03:07:17.804Z,100.0000
2023-04-26T03:08:19.079Z,100.0000
2023-04-26T03:09:19.636Z,100.0000
2023-04-26T03:10:20.430Z,100.0000
2023-04-26T03:11:21.145Z,100.0000
2023-04-26T03:12:21.783Z,100.0000
2023-04-26T03:13:22.657Z,100.0000
2023-04-26T03:14:23.419Z,100.0000
2023-04-26T03:15:24.150Z,100.0000
2023-04-26T03:16:25.070Z,100.0000
2023-04-26T03:17:26.225Z,100.0000
2023-04-26T03:18:26.420Z,100.0000
2023-04-26T03:19:27.404Z,100.0000
2023-04-26T03:20:28.519Z,100.0000
2023-04-26T03:21:29.372Z,100.0000
2023-04-26T03:22:29.862Z,100.0000
2023-04-26T03:23:30.723Z,100.0000
2023-04-26T03:24:31.167Z,100.0000
2023-04-26T03:25:32.966Z,100.0000
2023-04-26T03:26:33.236Z,100.0000
2023-04-26T03:27:33.181Z,100.0000
2023-04-26T03:28:33.236Z,100.0000
2023-04-26T03:29:33.768Z,100.0000
2023-04-26T03:30:34.480Z,100.0000
2023-04-26T03:31:35.207Z,100.0000
2023-04-26T03:32:35.247Z,100.0000
2023-04-26T03:33:35.913Z,100.0000
2023-04-26T03:34:36.860Z,100.0000
2023-04-26T03:35:37.722Z,100.0000
2023-04-26T03:36:38.431Z,100.0000
2023-04-26T03:37:39.132Z,100.0000
2023-04-26T03:38:39.225Z,100.0000
2023-04-26T03:39:39.985Z,100.0000
2023-04-26T03:40:40.842Z,100.0000
2023-04-26T03:41:41.742Z,100.0000
2023-04-26T03:42:42.735Z,100.0000
2023-04-26T03:43:43.753Z,100.0000
2023-04-26T03:44:44.765Z,100.0000
2023-04-26T03:46:46.332Z,100.0000
2023-04-26T03:47:47.585Z,100.0000
2023-04-26T03:51:09.841Z,100.0000
2023-04-26T03:51:49.544Z,100.0000
2023-04-26T03:52:50.360Z,100.0000
2023-04-26T03:53:50.661Z,100.0000
2023-04-26T03:55:10.892Z,100.0000
2023-04-26T03:55:51.638Z,100.0000
2023-04-26T03:56:51.550Z,100.0000
2023-04-26T03:57:52.393Z,100.0000
2023-04-26T03:58:53.794Z,100.0000
2023-04-26T03:59:55.121Z,100.0000
2023-04-26T04:01:55.839Z,100.0000
2023-04-26T04:02:56.152Z,100.0000
2023-04-26T04:03:56.724Z,100.0000
2023-04-26T04:06:57.850Z,100.0000
2023-04-26T04:07:57.640Z,100.0000
2023-04-26T04:08:58.933Z,100.0000
2023-04-26T04:10:00.677Z,100.0000
2023-04-26T04:11:00.216Z,100.0000
2023-04-26T04:12:01.344Z,100.0000
2023-04-26T04:13:02.399Z,100.0000
2023-04-26T04:14:02.635Z,100.0000
2023-04-26T04:15:03.096Z,100.0000
2023-04-26T04:16:05.169Z,100.0000
2023-04-26T04:17:04.352Z,100.0000
2023-04-26T04:18:06.196Z,100.0000
2023-04-26T04:19:07.452Z,100.0000
2023-04-26T04:20:07.036Z,100.0000
2023-04-26T04:21:07.790Z,100.0000
2023-04-26T04:22:08.514Z,100.0000
2023-04-26T04:23:09.280Z,100.0000
2023-04-26T04:24:10.633Z,100.0000
2023-04-26T04:25:11.746Z,100.0000
2023-04-26T04:26:12.361Z,100.0000
2023-04-26T04:27:12.993Z,100.0000
2023-04-26T04:28:13.245Z,100.0000
2023-04-26T04:29:14.890Z,100.0000
2023-04-26T04:31:15.815Z,100.0000
2023-04-26T04:32:16.539Z,100.0000
2023-04-26T04:33:16.718Z,100.0000
2023-04-26T04:34:17.845Z,100.0000
2023-04-26T04:36:18.474Z,100.0000
2023-04-26T04:37:18.832Z,100.0000
2023-04-26T04:38:20.064Z,100.0000
2023-04-26T04:39:21.007Z,100.0000
2023-04-26T04:40:21.340Z,100.0000
2023-04-26T04:41:43.477Z,100.0000
2023-04-26T04:42:21.882Z,100.0000
2023-04-26T04:43:23.459Z,100.0000
2023-04-26T04:44:24.559Z,100.0000
2023-04-26T04:45:25.098Z,100.0000
2023-04-26T04:46:25.900Z,100.0000
2023-04-26T04:47:28.514Z,100.0000
2023-04-26T04:50:29.404Z,100.0000
2023-04-26T04:52:28.822Z,100.0000
2023-04-26T04:53:29.388Z,100.0000
2023-04-26T04:54:31.138Z,100.0000
2023-04-26T04:55:30.823Z,100.0000
2023-04-26T04:56:32.046Z,100.0000
2023-04-26T04:58:32.395Z,100.0000
2023-04-26T04:59:33.364Z,100.0000
2023-04-26T05:00:35.026Z,100.0000
2023-04-26T05:01:36.184Z,100.0000
2023-04-26T05:02:36.568Z,100.0000
2023-04-26T05:03:38.000Z,100.0000
2023-04-26T05:04:38.226Z,100.0000
2023-04-26T05:05:38.344Z,100.0000
2023-04-26T05:06:39.380Z,100.0000
2023-04-26T05:07:40.026Z,100.0000
2023-04-26T05:08:41.169Z,100.0000
2023-04-26T05:09:42.735Z,100.0000
2023-04-26T05:10:42.872Z,100.0000
2023-04-26T05:11:43.988Z,100.0000
2023-04-26T05:19:53.371Z,100.0000
2023-04-26T05:20:54.137Z,100.0000
2023-04-26T05:21:55.349Z,100.0000
2023-04-26T05:22:56.022Z,100.0000
2023-04-26T05:23:56.226Z,100.0000
2023-04-26T05:24:57.285Z,100.0000
2023-04-26T05:25:57.929Z,100.0000
2023-04-26T05:26:58.636Z,100.0000
2023-04-26T05:27:59.198Z,100.0000
2023-04-26T05:29:00.121Z,100.0000
2023-04-26T05:30:00.811Z,100.0000
2023-04-26T05:31:01.995Z,100.0000
2023-04-26T05:32:03.244Z,100.0000
2023-04-26T05:33:03.264Z,100.0000
2023-04-26T05:34:03.910Z,100.0000
2023-04-26T05:35:04.505Z,100.0000
2023-04-26T05:36:04.851Z,100.0000
2023-04-26T05:37:05.281Z,100.0000
2023-04-26T05:38:06.042Z,100.0000
2023-04-26T05:39:06.618Z,100.0000
2023-04-26T05:40:07.633Z,100.0000
2023-04-26T05:41:08.322Z,100.0000
2023-04-26T05:42:08.661Z,100.0000
2023-04-26T05:43:09.702Z,100.0000
2023-04-26T05:44:10.279Z,100.0000
2023-04-26T05:45:10.997Z,100.0000
2023-04-26T05:46:12.149Z,100.0000
2023-04-26T05:47:13.428Z,100.0000
2023-04-26T05:48:14.266Z,100.0000
2023-04-26T05:49:14.964Z,100.0000
2023-04-26T05:50:15.549Z,100.0000
2023-04-26T05:51:16.682Z,100.0000
2023-04-26T05:52:17.321Z,100.0000
2023-04-26T05:53:17.808Z,100.0000
2023-04-26T05:54:18.198Z,100.0000
2023-04-26T05:55:18.874Z,100.0000
2023-04-26T05:56:19.549Z,99.8896
2023-04-26T05:57:19.782Z,99.8157
2023-04-26T05:58:20.341Z,99.8385
2023-04-26T05:59:21.175Z,99.8434
2023-04-26T06:00:21.906Z,99.8532
2023-04-26T06:01:22.714Z,99.9491
2023-04-26T06:02:24.217Z,99.8161
2023-04-26T06:03:24.265Z,99.6320
2023-04-26T06:04:25.156Z,99.4985
2023-04-26T06:05:25.178Z,99.5161
2023-04-26T06:06:25.851Z,99.4131
2023-04-26T06:07:26.465Z,99.3884
2023-04-26T06:08:27.077Z,99.1996
2023-04-26T06:09:27.238Z,99.1100
2023-04-26T06:10:28.036Z,99.2653
2023-04-26T06:11:28.757Z,99.4495
2023-04-26T06:12:29.513Z,99.6478
2023-04-26T06:13:30.237Z,99.5909
2023-04-26T06:14:31.119Z,99.5555
2023-04-26T06:15:32.163Z,99.2840
2023-04-26T06:16:32.942Z,99.1608
2023-04-26T06:17:34.155Z,99.0752
2023-04-26T06:18:35.165Z,98.8727
2023-04-26T06:19:35.721Z,98.7367
2023-04-26T06:20:36.494Z,98.6498
2023-04-26T06:21:37.319Z,98.6907
2023-04-26T06:22:37.981Z,98.8033
2023-04-26T06:23:39.215Z,98.8352
2023-04-26T06:24:39.798Z,98.5909
2023-04-26T06:25:40.607Z,98.6790
2023-04-26T06:26:41.530Z,98.4660
2023-04-26T06:27:42.153Z,98.6463
2023-04-26T06:28:42.896Z,98.8170
2023-04-26T06:29:43.728Z,98.5919
2023-04-26T06:30:44.637Z,98.2976
2023-04-26T06:31:45.633Z,98.1671
2023-04-26T06:32:46.762Z,98.5318
2023-04-26T06:33:47.419Z,98.6703
2023-04-26T06:34:48.607Z,98.5867
2023-04-26T06:35:49.107Z,98.3621
2023-04-26T06:36:49.760Z,98.3699
2023-04-26T06:37:50.939Z,98.3204
2023-04-26T06:38:51.520Z,98.0022
2023-04-26T06:39:52.329Z,97.8141
2023-04-26T06:40:53.206Z,97.8946
2023-04-26T06:41:53.757Z,97.8182
2023-04-26T06:42:54.476Z,97.6238
2023-04-26T06:43:55.412Z,97.8246
2023-04-26T06:44:55.232Z,97.8374
2023-04-26T06:45:55.203Z,97.6765
2023-04-26T06:46:56.032Z,97.3752
2023-04-26T06:47:57.191Z,97.1246
2023-04-26T06:48:57.984Z,96.9889
2023-04-26T06:49:58.639Z,97.3221
2023-04-26T06:50:59.298Z,97.1621
2023-04-26T06:51:59.936Z,97.0636
2023-04-26T06:53:01.185Z,97.0721
2023-04-26T06:54:01.914Z,96.6775
2023-04-26T06:55:03.427Z,96.4581
2023-04-26T06:56:04.019Z,96.5470
2023-04-26T06:57:04.634Z,96.5864
2023-04-26T06:58:05.130Z,97.0666
2023-04-26T06:59:05.838Z,97.2808
2023-04-26T07:00:06.563Z,97.1517
2023-04-26T07:01:07.033Z,96.5455
2023-04-26T07:02:08.136Z,95.7940
2023-04-26T07:03:08.707Z,95.8386
2023-04-26T07:04:09.964Z,96.3188
2023-04-26T07:05:11.019Z,96.0117
2023-04-26T07:06:12.252Z,96.3694
2023-04-26T07:07:13.762Z,96.7311
2023-04-26T07:08:13.420Z,96.0788
2023-04-26T07:09:14.100Z,95.3391
2023-04-26T07:10:14.796Z,95.3921
2023-04-26T07:11:15.473Z,94.9445
2023-04-26T07:12:16.464Z,94.5738
2023-04-26T07:13:17.090Z,94.1149
2023-04-26T07:14:17.764Z,93.8390
2023-04-26T07:15:18.731Z,94.1470
2023-04-26T07:16:19.483Z,94.5455
2023-04-26T07:17:20.418Z,95.3209
2023-04-26T07:18:21.276Z,95.5041
2023-04-26T07:19:21.935Z,94.1394
2023-04-26T07:20:22.498Z,94.4994
2023-04-26T07:21:23.231Z,93.8083
2023-04-26T07:22:23.855Z,93.5848
2023-04-26T07:23:24.580Z,93.5217
2023-04-26T07:24:25.297Z,93.9328
2023-04-26T07:25:25.747Z,93.3052
2023-04-26T07:26:26.658Z,92.6743
2023-04-26T07:27:26.403Z,92.9046
2023-04-26T07:28:26.877Z,93.2830
2023-04-26T07:29:27.614Z,93.9918
2023-04-26T07:30:28.459Z,94.1549
2023-04-26T07:31:28.786Z,93.2391
2023-04-26T07:32:29.740Z,94.0465
2023-04-26T07:33:31.662Z,94.6198
2023-04-26T07:34:31.931Z,93.3144
2023-04-26T07:35:32.901Z,93.5730
2023-04-26T07:36:33.299Z,93.0579
2023-04-26T07:37:33.775Z,93.1942
2023-04-26T07:38:34.359Z,94.4408
2023-04-26T07:39:34.815Z,94.6206
2023-04-26T07:40:35.770Z,94.0801
2023-04-26T07:41:36.683Z,93.8586
2023-04-26T07:42:37.834Z,94.8214
2023-04-26T07:43:38.633Z,94.6882
2023-04-26T07:44:39.081Z,94.8324
2023-04-26T07:45:39.819Z,94.1373
2023-04-26T07:46:40.885Z,92.9702
2023-04-26T07:47:41.374Z,92.3154
2023-04-26T07:48:42.125Z,92.9717
2023-04-26T07:49:42.677Z,92.3513
2023-04-26T07:50:43.309Z,91.7241
2023-04-26T07:51:44.082Z,90.8103
2023-04-26T07:52:44.534Z,91.3515
2023-04-26T07:53:45.188Z,92.6387
2023-04-26T07:54:45.442Z,92.2702
2023-04-26T07:55:45.927Z,91.8268
2023-04-26T07:56:46.682Z,92.3281
2023-04-26T07:57:47.193Z,91.9232
2023-04-26T07:58:47.881Z,91.4069
2023-04-26T07:59:48.660Z,90.6322
2023-04-26T08:00:49.116Z,89.6021
2023-04-26T08:01:49.852Z,88.7735
2023-04-26T08:02:50.947Z,89.2159
2023-04-26T08:03:51.381Z,89.8656
2023-04-26T08:04:52.463Z,89.4441
2023-04-26T08:05:53.369Z,89.4973
2023-04-26T08:06:53.328Z,89.5754
2023-04-26T08:07:53.868Z,89.0421
2023-04-26T08:08:54.585Z,89.5118
2023-04-26T08:09:55.507Z,89.9045
2023-04-26T08:10:56.042Z,90.4192
2023-04-26T08:11:56.895Z,90.5662
2023-04-26T08:12:57.632Z,90.9006
2023-04-26T08:13:57.892Z,92.2137
2023-04-26T08:14:58.509Z,91.8103
2023-04-26T08:15:59.437Z,90.9583
2023-04-26T08:17:00.269Z,91.7109
2023-04-26T08:18:00.476Z,90.6167
2023-04-26T08:19:01.422Z,89.4254
2023-04-26T08:20:02.203Z,88.5740
2023-04-26T08:21:02.807Z,88.2352
2023-04-26T08:22:03.438Z,88.2539
2023-04-26T08:23:04.169Z,88.1535
2023-04-26T08:24:05.335Z,88.5133
2023-04-26T08:25:06.092Z,88.7031
2023-04-26T08:26:06.796Z,87.9303
2023-04-26T08:27:07.350Z,88.0534
2023-04-26T08:28:08.132Z,88.4753
2023-04-26T08:29:08.812Z,90.1041
2023-04-26T08:30:09.702Z,90.1877
2023-04-26T08:31:09.948Z,91.2150
2023-04-26T08:32:10.843Z,90.3087
2023-04-26T08:33:11.908Z,89.0311
2023-04-26T08:34:12.656Z,89.0818
2023-04-26T08:35:13.164Z,89.7497
2023-04-26T08:36:13.821Z,90.5533
2023-04-26T08:37:14.261Z,88.6390
2023-04-26T08:38:14.915Z,88.4701
2023-04-26T08:39:15.675Z,88.4090
2023-04-26T08:40:16.338Z,87.9837
2023-04-26T08:41:17.057Z,87.8967
2023-04-26T08:42:17.730Z,87.8082
2023-04-26T08:43:18.367Z,88.1988
2023-04-26T08:44:19.062Z,87.5701
2023-04-26T08:45:19.551Z,87.5484
2023-04-26T08:46:20.272Z,87.7999
2023-04-26T08:47:21.133Z,87.3201
2023-04-26T08:48:22.344Z,86.8206
2023-04-26T08:49:23.042Z,86.6120
2023-04-26T08:50:23.811Z,87.8912
2023-04-26T08:51:24.364Z,87.2159
2023-04-26T08:52:24.725Z,87.4602
2023-04-26T08:53:25.270Z,86.4961
2023-04-26T08:54:26.042Z,86.7156
2023-04-26T08:55:26.677Z,86.7077
2023-04-26T08:56:27.138Z,87.1667
2023-04-26T08:57:27.879Z,87.0533
2023-04-26T08:58:28.573Z,86.3478
2023-04-26T08:59:29.039Z,86.5211
2023-04-26T09:00:29.772Z,86.5635
2023-04-26T09:01:30.337Z,86.7036
2023-04-26T09:02:31.102Z,86.6419
2023-04-26T09:03:31.658Z,86.2861
2023-04-26T09:04:32.503Z,86.1924
2023-04-26T09:05:33.268Z,86.1368
2023-04-26T09:06:34.258Z,85.6236
2023-04-26T09:07:34.944Z,84.9140
2023-04-26T09:08:35.627Z,84.5597
2023-04-26T09:09:36.615Z,84.1694
2023-04-26T09:10:37.427Z,84.0099
2023-04-26T09:11:38.128Z,84.1713
2023-04-26T09:12:38.696Z,84.1853
2023-04-26T09:13:39.452Z,83.7631
2023-04-26T09:14:39.985Z,83.8502
2023-04-26T09:15:40.810Z,83.3896
2023-04-26T09:16:42.031Z,83.1779
2023-04-26T09:17:42.864Z,82.5598
2023-04-26T09:18:44.152Z,81.9431
2023-04-26T09:19:44.933Z,82.2133
2023-04-26T09:20:45.271Z,81.2807
2023-04-26T09:21:45.993Z,81.7501
2023-04-26T09:22:46.701Z,81.9629
2023-04-26T09:23:47.279Z,81.8001
2023-04-26T09:24:48.035Z,82.1436
2023-04-26T09:25:48.579Z,81.7001
2023-04-26T09:26:49.326Z,81.2416
2023-04-26T09:27:49.966Z,81.2367
2023-04-26T09:28:50.663Z,80.1556
2023-04-26T09:29:51.027Z,81.2805
2023-04-26T09:30:51.512Z,81.1390
2023-04-26T09:31:52.943Z,81.1601
2023-04-26T09:32:53.834Z,80.7368
2023-04-26T09:33:54.903Z,82.9171
2023-04-26T09:34:55.530Z,81.5162
2023-04-26T09:35:56.142Z,79.8976
2023-04-26T09:36:56.625Z,78.3145
2023-04-26T09:38:01.123Z,76.2917
2023-04-26T09:38:58.552Z,78.9722
2023-04-26T09:39:59.247Z,78.9688
2023-04-26T09:40:59.967Z,78.5270
2023-04-26T09:42:00.446Z,78.3754
2023-04-26T09:43:01.162Z,78.2469
2023-04-26T09:44:01.997Z,77.9239
2023-04-26T09:45:02.651Z,78.4135
2023-04-26T09:46:03.384Z,77.5545
2023-04-26T09:47:04.382Z,76.7975
2023-04-26T09:48:04.306Z,77.2710
2023-04-26T09:49:04.453Z,79.9422
2023-04-26T09:50:05.137Z,78.7852
2023-04-26T09:51:05.901Z,78.3821
2023-04-26T09:52:06.606Z,77.2257
2023-04-26T09:53:07.083Z,77.8208
2023-04-26T09:54:07.740Z,77.1565
2023-04-26T09:55:09.177Z,77.2816
2023-04-26T09:56:08.556Z,77.4116
2023-04-26T09:57:09.450Z,78.6512
2023-04-26T09:58:09.953Z,77.8129
2023-04-26T09:59:10.171Z,78.6285
2023-04-26T10:00:10.806Z,79.0395
2023-04-26T10:01:11.458Z,78.5605
2023-04-26T10:02:12.368Z,78.6688
2023-04-26T10:03:14.173Z,78.8283
2023-04-26T10:04:14.545Z,77.8587
2023-04-26T10:05:15.506Z,77.6784
2023-04-26T10:06:16.181Z,77.2286
2023-04-26T10:07:16.638Z,76.8178
2023-04-26T10:08:17.388Z,76.7960
2023-04-26T10:09:18.500Z,76.1179
2023-04-26T10:10:19.273Z,76.8226
2023-04-26T10:11:20.025Z,75.8479
2023-04-26T10:12:20.763Z,75.5206
2023-04-26T10:13:21.434Z,75.6675
2023-04-26T10:14:22.187Z,75.7006
2023-04-26T10:15:22.752Z,75.3513
2023-04-26T10:16:23.510Z,74.4310
2023-04-26T10:17:24.354Z,76.0451
2023-04-26T10:18:25.156Z,75.6291
2023-04-26T10:19:25.986Z,74.4049
2023-04-26T10:20:26.689Z,73.8342
2023-04-26T10:21:27.438Z,73.4878
2023-04-26T10:22:28.082Z,72.7619
2023-04-26T10:23:28.588Z,71.5788
2023-04-26T10:24:29.433Z,72.3242
2023-04-26T10:25:29.990Z,73.5123
2023-04-26T10:26:30.667Z,73.0678
2023-04-26T10:27:31.393Z,72.8912
2023-04-26T10:28:32.001Z,72.0325
2023-04-26T10:29:32.635Z,72.3738
2023-04-26T10:30:33.401Z,72.2317
2023-04-26T10:31:34.152Z,72.2215
2023-04-26T10:32:35.162Z,75.2186
2023-04-26T10:33:36.479Z,72.7094
2023-04-26T10:34:37.064Z,70.6681
2023-04-26T10:35:37.924Z,70.3418
2023-04-26T10:36:38.387Z,69.3414
2023-04-26T10:37:39.004Z,71.2277
2023-04-26T10:38:39.960Z,72.0478
2023-04-26T10:40:45.821Z,72.6484
2023-04-26T10:41:46.796Z,69.0166
2023-04-26T10:42:47.786Z,66.2388
2023-04-26T10:43:48.507Z,64.8343
2023-04-26T10:44:49.623Z,62.8198
2023-04-26T10:45:50.407Z,65.1758
2023-04-26T10:47:51.131Z,64.9446
2023-04-26T10:48:52.088Z,66.5512
2023-04-26T10:49:52.250Z,66.8688
2023-04-26T10:50:52.882Z,65.0524
2023-04-26T10:51:53.585Z,63.2428
2023-04-26T10:52:54.128Z,61.8887
2023-04-26T10:53:55.570Z,61.7773
2023-04-26T10:54:55.467Z,62.6644
2023-04-26T10:55:56.088Z,65.5358
2023-04-26T10:56:56.785Z,62.5853
2023-04-26T10:57:57.610Z,61.4461
2023-04-26T10:58:58.237Z,64.2876
2023-04-26T10:59:59.064Z,62.6594
2023-04-26T11:01:00.091Z,61.5004
2023-04-26T11:02:00.151Z,59.2190
2023-04-26T11:03:01.301Z,58.7917
2023-04-26T11:04:02.537Z,58.0987
2023-04-26T11:05:03.578Z,58.8979
2023-04-26T11:06:04.196Z,58.4290
2023-04-26T11:07:05.197Z,58.3562
2023-04-26T11:08:05.722Z,56.2360
2023-04-26T11:09:06.754Z,53.8084
2023-04-26T11:10:07.534Z,52.4836
2023-04-26T11:11:08.025Z,51.8258
2023-04-26T11:12:08.645Z,53.2303
2023-04-26T11:13:09.311Z,55.9940
2023-04-26T11:14:09.923Z,56.8585
2023-04-26T11:15:10.663Z,56.9631
2023-04-26T11:16:11.592Z,55.7654
2023-04-26T11:17:12.646Z,56.1859
2023-04-26T11:18:13.529Z,56.7284
2023-04-26T11:19:14.196Z,58.6813
2023-04-26T11:20:14.982Z,59.1513
2023-04-26T11:21:15.797Z,60.3942
2023-04-26T11:22:16.606Z,57.5051
2023-04-26T11:23:17.237Z,56.4744
2023-04-26T11:24:17.695Z,56.2081
2023-04-26T11:25:18.365Z,54.7821
2023-04-26T11:26:19.084Z,53.6616
2023-04-26T11:27:19.562Z,54.8231
2023-04-26T11:28:20.333Z,53.5128
2023-04-26T11:29:20.816Z,52.1975
2023-04-26T11:30:21.460Z,53.0856
2023-04-26T11:31:22.819Z,53.4014
2023-04-26T11:32:23.853Z,53.4142
2023-04-26T11:33:24.817Z,54.1754
2023-04-26T11:34:25.450Z,56.1629
2023-04-26T11:35:25.942Z,55.2606
2023-04-26T11:36:26.585Z,56.0015
2023-04-26T11:37:27.048Z,53.6252
2023-04-26T11:38:27.628Z,52.1116
2023-04-26T11:39:28.712Z,51.3121
2023-04-26T11:40:29.216Z,51.4678
2023-04-26T11:41:29.920Z,52.2229
2023-04-26T11:42:30.625Z,52.0116
2023-04-26T11:43:31.260Z,51.3568
2023-04-26T11:44:32.459Z,51.9429
2023-04-26T11:45:32.987Z,52.0059
2023-04-26T11:46:33.734Z,52.7624
2023-04-26T11:47:34.634Z,52.9129
2023-04-26T11:48:35.419Z,50.2149
2023-04-26T11:49:36.245Z,50.1982
2023-04-26T11:50:36.932Z,49.8426
2023-04-26T11:51:37.673Z,49.8567
2023-04-26T11:52:38.255Z,49.7091
2023-04-26T11:53:38.747Z,50.8205
2023-04-26T11:54:39.731Z,51.0650
2023-04-26T11:55:40.446Z,52.2538
2023-04-26T11:56:41.018Z,54.4574
2023-04-26T11:57:41.810Z,55.1168
2023-04-26T11:58:42.808Z,54.8756
2023-04-26T11:59:43.944Z,54.4948
2023-04-26T12:00:43.769Z,53.5809
2023-04-26T12:01:44.691Z,53.8733
2023-04-26T12:02:46.015Z,53.7572
2023-04-26T12:03:47.354Z,52.7445
2023-04-26T12:04:47.987Z,52.0166
2023-04-26T12:05:48.268Z,52.2625
2023-04-26T12:06:49.286Z,52.1679
2023-04-26T12:07:50.266Z,51.4946
2023-04-26T12:08:51.506Z,50.8148
2023-04-26T12:09:52.092Z,49.3148
2023-04-26T12:10:52.273Z,49.3824
2023-04-26T12:11:52.738Z,50.3819
2023-04-26T12:12:53.909Z,49.0331
2023-04-26T12:13:54.632Z,48.0833
2023-04-26T12:14:55.274Z,47.8177
2023-04-26T12:15:55.399Z,47.2334
2023-04-26T12:16:55.861Z,48.4147
2023-04-26T12:17:56.242Z,48.5751
2023-04-26T12:18:56.283Z,48.7656
2023-04-26T12:19:57.129Z,52.1292
2023-04-26T12:20:57.981Z,52.7911
2023-04-26T12:21:58.013Z,50.7672
2023-04-26T12:22:58.837Z,50.4140
2023-04-26T12:23:59.588Z,51.2189
2023-04-26T12:25:00.485Z,52.7812
2023-04-26T12:26:01.257Z,51.9831
2023-04-26T12:27:02.668Z,49.0712
2023-04-26T12:28:02.550Z,49.9664
2023-04-26T12:29:03.468Z,50.2300
2023-04-26T12:30:04.205Z,49.9780
2023-04-26T12:31:05.060Z,51.8571
2023-04-26T12:32:05.650Z,53.1445
2023-04-26T12:33:16.400Z,50.6965
2023-04-26T12:34:06.437Z,47.8081
2023-04-26T12:35:07.131Z,47.0304
2023-04-26T12:36:07.812Z,46.8038
2023-04-26T12:37:08.353Z,47.2315
2023-04-26T12:38:09.003Z,47.0526
2023-04-26T12:39:09.487Z,47.2678
2023-04-26T12:40:09.584Z,46.9339
2023-04-26T12:41:10.260Z,46.2274